Larkslane, Kentucky
Current Conditions -  °F | °C
As of 4:35 PM on Wednesday 17 Dec 2014 (Local Time) from KPBX Reporting Station
Clear Clear  
Wind Chill: 35°   Ceiling: Unl
Heat Index: 38°   Visibility: 10mi
Dew Point: 29°   Wind: 5mph
Humidity: 71%   Direction: 320°NW
Pressure: 30.14"   Gusts: NA
Location:  37.3774°N, 82.8859°W
Report Text: KPBX 172135Z AUTO 32004KT 10SM CLR 03/M01 A3014 RMK AO2 T00341015
Loading
Personal Weather Stations






























Interactive Weather Map New forecast layout! Learn more

10-Day Weather Forecast

Advertisements
Track Severe Weather on mobile